Check out our new PWSWeather beta!
PWSweather.com
Personal Weather Stations
Station Observations
IHTIMAN1
Neighbourhood 1, IhtimanBG 2050

Neighbourhood 1IhtimanBG 2050

Lat: 42.436852, Lon: 23.817921

Elevation: 2066

Station Type: Oregon Scientific WMR968

http://ihtiman-meteo.com

Latest ConditionsUpdated 8:40:01 PM GMT+02:02 Monday, Feb 24, 2020
Currently Today's Max Today's Min Today's Average
Temperature 41.4°F5.2°C 59.7°F15.4°C 34.5°F1.4°C 46.4°F8.0°C
Dew Point 19.5°F-6.9°C 34.2°F1.2°C 19.5°F-6.9°C 27.4°F-2.6°C
Winds 3.5 mph N5.6 kmh N 17.3 mph -27.8 kmh - - 6.6 mph 10.6 kmh
Wind Gusts 3.5 mph5.6 kmh 25.3 mph40.7 kmh - -
Humidity 41% 76% 37% 49%
Pressure 30.12 in1020.0 mb 30.12 in1020.0 mb 29.86 in1011.2 mb -
Hour Temp Dew Point Humidity Winds Wind Gusts Pressure Precip Precip Rate Daily Precip Total
08:40 PM 41.4°F5.2°C 19.5°F-6.9°C 41% 3.5 mph N5.6 kmh N 3.5 mph5.6 kmh 30.12 in1020.0 mb - 0.00 in0.0 mm 0.00 in0.0 mm
08:30 PM 42.8°F6.0°C 20.1°F-6.6°C 40% 4.6 mph NW7.4 kmh NW 5.8 mph9.3 kmh 30.12 in1020.0 mb - 0.00 in0.0 mm 0.00 in0.0 mm
08:20 PM 43.7°F6.5°C 20.9°F-6.2°C 40% 6.9 mph NW11.1 kmh NW 8.1 mph13.0 kmh 30.12 in1020.0 mb - 0.00 in0.0 mm 0.00 in0.0 mm
08:10 PM 44.1°F6.7°C 21.3°F-5.9°C 40% 6.9 mph N11.1 kmh N 8.1 mph13.0 kmh 30.09 in1019.0 mb - 0.00 in0.0 mm 0.00 in0.0 mm
07:50 PM 44.6°F7.0°C 21.1°F-6.1°C 39% 8.1 mph N13.0 kmh N 10.4 mph16.7 kmh 30.09 in1019.0 mb - 0.00 in0.0 mm 0.00 in0.0 mm
07:40 PM 45.1°F7.3°C 21.0°F-6.1°C 38% 8.1 mph NNW13.0 kmh NNW 10.4 mph16.7 kmh 30.09 in1019.0 mb - 0.00 in0.0 mm 0.00 in0.0 mm
07:30 PM 45.3°F7.4°C 21.2°F-6.0°C 38% 6.9 mph NNW11.1 kmh NNW 12.7 mph20.4 kmh 30.09 in1019.0 mb - 0.00 in0.0 mm 0.00 in0.0 mm
07:20 PM 45.5°F7.5°C 21.3°F-5.9°C 38% 6.9 mph NNW11.1 kmh NNW 11.5 mph18.5 kmh 30.09 in1019.0 mb - 0.00 in0.0 mm 0.00 in0.0 mm
07:10 PM 45.9°F7.7°C 21.7°F-5.7°C 38% 5.8 mph N9.3 kmh N 8.1 mph13.0 kmh 30.09 in1019.0 mb - 0.00 in0.0 mm 0.00 in0.0 mm
07:00 PM 46.4°F8.0°C 21.5°F-5.8°C 37% 9.2 mph NW14.8 kmh NW 10.4 mph16.7 kmh 30.09 in1019.0 mb - 0.00 in0.0 mm 0.00 in0.0 mm
06:50 PM 46.9°F8.3°C 22.0°F-5.6°C 37% 8.1 mph 13.0 kmh 9.2 mph14.8 kmh 30.09 in1019.0 mb - 0.00 in0.0 mm 0.00 in0.0 mm
06:40 PM 47.5°F8.6°C 22.5°F-5.3°C 37% 8.1 mph N13.0 kmh N 12.7 mph20.4 kmh 30.06 in1017.9 mb - 0.00 in0.0 mm 0.00 in0.0 mm
06:30 PM 48.1°F8.9°C 23.0°F-5.0°C 37% 9.2 mph N14.8 kmh N 15.0 mph24.1 kmh 30.06 in1017.9 mb - 0.00 in0.0 mm 0.00 in0.0 mm
06:20 PM 48.4°F9.1°C 23.9°F-4.5°C 38% 10.4 mph NNW16.7 kmh NNW 12.7 mph20.4 kmh 30.06 in1017.9 mb - 0.00 in0.0 mm 0.00 in0.0 mm
06:10 PM 48.7°F9.3°C 24.9°F-3.9°C 39% 8.1 mph NNW13.0 kmh NNW 11.5 mph18.5 kmh 30.03 in1016.9 mb - 0.00 in0.0 mm 0.00 in0.0 mm
06:00 PM 49.5°F9.7°C 24.9°F-3.9°C 38% 6.9 mph N11.1 kmh N 16.1 mph25.9 kmh 30.03 in1016.9 mb - 0.00 in0.0 mm 0.00 in0.0 mm
05:50 PM 49.8°F9.9°C 25.2°F-3.8°C 38% 8.1 mph N13.0 kmh N 15.0 mph24.1 kmh 30.03 in1016.9 mb - 0.00 in0.0 mm 0.00 in0.0 mm
05:40 PM 50.4°F10.2°C 25.7°F-3.5°C 38% 9.2 mph N14.8 kmh N 12.7 mph20.4 kmh 30.00 in1015.9 mb - 0.00 in0.0 mm 0.00 in0.0 mm
05:30 PM 51.1°F10.6°C 26.3°F-3.2°C 38% 6.9 mph N11.1 kmh N 10.4 mph16.7 kmh 30.00 in1015.9 mb - 0.00 in0.0 mm 0.00 in0.0 mm
05:20 PM 52.2°F11.2°C 26.6°F-3.0°C 37% 6.9 mph NNW11.1 kmh NNW 12.7 mph20.4 kmh 30.00 in1015.9 mb - 0.00 in0.0 mm 0.00 in0.0 mm
05:10 PM 52.7°F11.5°C 27.1°F-2.7°C 37% 12.7 mph NNW20.4 kmh NNW 18.4 mph29.6 kmh 30.00 in1015.9 mb - 0.00 in0.0 mm 0.00 in0.0 mm
05:00 PM 52.5°F11.4°C 28.2°F-2.1°C 39% 10.4 mph NNW16.7 kmh NNW 12.7 mph20.4 kmh 30.00 in1015.9 mb - 0.00 in0.0 mm 0.00 in0.0 mm
04:50 PM 53.8°F12.1°C 29.4°F-1.4°C 39% 11.5 mph NW18.5 kmh NW 17.3 mph27.8 kmh 29.97 in1014.9 mb - 0.00 in0.0 mm 0.00 in0.0 mm
04:40 PM 55.0°F12.8°C 29.9°F-1.2°C 38% 9.2 mph NNW14.8 kmh NNW 21.9 mph35.2 kmh 29.97 in1014.9 mb - 0.00 in0.0 mm 0.00 in0.0 mm
04:30 PM 55.2°F12.9°C 30.0°F-1.1°C 38% 15.0 mph NNW24.1 kmh NNW 21.9 mph35.2 kmh 29.97 in1014.9 mb - 0.00 in0.0 mm 0.00 in0.0 mm
04:20 PM 55.6°F13.1°C 31.0°F-0.6°C 39% 10.4 mph NW16.7 kmh NW 12.7 mph20.4 kmh 29.97 in1014.9 mb - 0.00 in0.0 mm 0.00 in0.0 mm
04:10 PM 56.6°F13.7°C 31.9°F-0.1°C 39% 10.4 mph NW16.7 kmh NW 15.0 mph24.1 kmh 29.97 in1014.9 mb - 0.00 in0.0 mm 0.00 in0.0 mm
04:00 PM 56.1°F13.4°C 31.5°F-0.3°C 39% 12.7 mph NNW20.4 kmh NNW 16.1 mph25.9 kmh 29.97 in1014.9 mb - 0.00 in0.0 mm 0.00 in0.0 mm
03:50 PM 56.5°F13.6°C 31.8°F-0.1°C 39% 12.7 mph NW20.4 kmh NW 19.6 mph31.5 kmh 29.97 in1014.9 mb - 0.00 in0.0 mm 0.00 in0.0 mm
03:40 PM 56.7°F13.7°C 32.0°F0.0°C 39% 17.3 mph NNW27.8 kmh NNW 23.0 mph37.0 kmh 29.97 in1014.9 mb - 0.00 in0.0 mm 0.00 in0.0 mm
03:30 PM 56.2°F13.4°C 32.8°F0.4°C 41% 12.7 mph NW20.4 kmh NW 23.0 mph37.0 kmh 29.97 in1014.9 mb - 0.00 in0.0 mm 0.00 in0.0 mm
03:20 PM 56.0°F13.3°C 32.6°F0.3°C 41% 13.8 mph NNW22.2 kmh NNW 24.2 mph38.9 kmh 29.97 in1014.9 mb - 0.00 in0.0 mm 0.00 in0.0 mm
03:10 PM 56.4°F13.6°C 34.2°F1.2°C 43% 15.0 mph NNW24.1 kmh NNW 25.3 mph40.7 kmh 29.97 in1014.9 mb - 0.00 in0.0 mm 0.00 in0.0 mm
03:00 PM 54.5°F12.5°C 33.0°F0.6°C 44% 12.7 mph N20.4 kmh N 21.9 mph35.2 kmh 29.97 in1014.9 mb - 0.00 in0.0 mm 0.00 in0.0 mm
02:50 PM 53.8°F12.1°C 31.8°F-0.1°C 43% 13.8 mph N22.2 kmh N 17.3 mph27.8 kmh 29.97 in1014.9 mb - 0.00 in0.0 mm 0.00 in0.0 mm
02:40 PM 54.6°F12.6°C 32.6°F0.3°C 43% 17.3 mph N27.8 kmh N 24.2 mph38.9 kmh 29.97 in1014.9 mb - 0.00 in0.0 mm 0.00 in0.0 mm
02:30 PM 55.0°F12.8°C 32.9°F0.5°C 43% 12.7 mph NNW20.4 kmh NNW 15.0 mph24.1 kmh 29.97 in1014.9 mb - 0.00 in0.0 mm 0.00 in0.0 mm
02:20 PM 55.0°F12.8°C 32.3°F0.2°C 42% 13.8 mph NW22.2 kmh NW 18.4 mph29.6 kmh 29.97 in1014.9 mb - 0.00 in0.0 mm 0.00 in0.0 mm
02:10 PM 55.3°F12.9°C 32.6°F0.3°C 42% 13.8 mph NW22.2 kmh NW 16.1 mph25.9 kmh 29.97 in1014.9 mb - 0.00 in0.0 mm 0.00 in0.0 mm
02:00 PM 56.3°F13.5°C 33.5°F0.8°C 42% 11.5 mph NW18.5 kmh NW 16.1 mph25.9 kmh 29.97 in1014.9 mb - 0.00 in0.0 mm 0.00 in0.0 mm
01:50 PM 56.6°F13.7°C 33.2°F0.7°C 41% 16.1 mph N25.9 kmh N 15.0 mph24.1 kmh 29.97 in1014.9 mb - 0.00 in0.0 mm 0.00 in0.0 mm
01:40 PM 56.3°F13.5°C 32.9°F0.5°C 41% 13.8 mph NNW22.2 kmh NNW 17.3 mph27.8 kmh 29.97 in1014.9 mb - 0.00 in0.0 mm 0.00 in0.0 mm
01:30 PM 56.1°F13.4°C 32.1°F0.1°C 40% 12.7 mph NW20.4 kmh NW 12.7 mph20.4 kmh 29.97 in1014.9 mb - 0.00 in0.0 mm 0.00 in0.0 mm
01:20 PM 55.7°F13.2°C 31.8°F-0.1°C 40% 10.4 mph NW16.7 kmh NW 17.3 mph27.8 kmh 29.97 in1014.9 mb - 0.00 in0.0 mm 0.00 in0.0 mm
01:10 PM 56.1°F13.4°C 31.5°F-0.3°C 39% 10.4 mph N16.7 kmh N 19.6 mph31.5 kmh 29.97 in1014.9 mb - 0.00 in0.0 mm 0.00 in0.0 mm
01:00 PM 56.9°F13.8°C 32.2°F0.1°C 39% 10.4 mph NNW16.7 kmh NNW 13.8 mph22.2 kmh 29.97 in1014.9 mb - 0.00 in0.0 mm 0.00 in0.0 mm
12:50 PM 57.6°F14.2°C 32.2°F0.1°C 38% 11.5 mph N18.5 kmh N 15.0 mph24.1 kmh 29.97 in1014.9 mb - 0.00 in0.0 mm 0.00 in0.0 mm
12:40 PM 58.6°F14.8°C 33.1°F0.6°C 38% 12.7 mph NNW20.4 kmh NNW 15.0 mph24.1 kmh 29.94 in1013.9 mb - 0.00 in0.0 mm 0.00 in0.0 mm
12:30 PM 59.4°F15.2°C 33.1°F0.6°C 37% 12.7 mph N20.4 kmh N 13.8 mph22.2 kmh 29.94 in1013.9 mb - 0.00 in0.0 mm 0.00 in0.0 mm
12:20 PM 59.7°F15.4°C 33.4°F0.8°C 37% 16.1 mph NW25.9 kmh NW 24.2 mph38.9 kmh 29.94 in1013.9 mb - 0.00 in0.0 mm 0.00 in0.0 mm
12:10 PM 59.2°F15.1°C 32.9°F0.5°C 37% 9.2 mph NNW14.8 kmh NNW 17.3 mph27.8 kmh 29.94 in1013.9 mb - 0.00 in0.0 mm 0.00 in0.0 mm
12:00 PM 58.8°F14.9°C 32.6°F0.3°C 37% 12.7 mph NW20.4 kmh NW 15.0 mph24.1 kmh 29.94 in1013.9 mb - 0.00 in0.0 mm 0.00 in0.0 mm
11:50 AM 59.2°F15.1°C 32.9°F0.5°C 37% 16.1 mph N25.9 kmh N 23.0 mph37.0 kmh 29.94 in1013.9 mb - 0.00 in0.0 mm 0.00 in0.0 mm
11:40 AM 59.2°F15.1°C 32.9°F0.5°C 37% 11.5 mph NW18.5 kmh NW 17.3 mph27.8 kmh 29.94 in1013.9 mb - 0.00 in0.0 mm 0.00 in0.0 mm
11:30 AM 59.4°F15.2°C 33.1°F0.6°C 37% 10.4 mph NW16.7 kmh NW 15.0 mph24.1 kmh 29.94 in1013.9 mb - 0.00 in0.0 mm 0.00 in0.0 mm
11:20 AM 59.2°F15.1°C 32.9°F0.5°C 37% 10.4 mph NNW16.7 kmh NNW 10.4 mph16.7 kmh 29.94 in1013.9 mb - 0.00 in0.0 mm 0.00 in0.0 mm
11:10 AM 56.9°F13.8°C 31.6°F-0.2°C 38% 9.2 mph N14.8 kmh N 12.7 mph20.4 kmh 29.94 in1013.9 mb - 0.00 in0.0 mm 0.00 in0.0 mm
11:00 AM 55.1°F12.8°C 29.9°F-1.2°C 38% 4.6 mph NNW7.4 kmh NNW 10.4 mph16.7 kmh 29.94 in1013.9 mb - 0.00 in0.0 mm 0.00 in0.0 mm
10:50 AM 53.7°F12.1°C 29.3°F-1.5°C 39% 4.6 mph N7.4 kmh N 11.5 mph18.5 kmh 29.94 in1013.9 mb - 0.00 in0.0 mm 0.00 in0.0 mm
10:40 AM 51.8°F11.0°C 27.6°F-2.4°C 39% 4.6 mph N7.4 kmh N 10.4 mph16.7 kmh 29.94 in1013.9 mb - 0.00 in0.0 mm 0.00 in0.0 mm
10:30 AM 50.4°F10.2°C 26.9°F-2.8°C 40% 3.5 mph N5.6 kmh N 5.8 mph9.3 kmh 29.94 in1013.9 mb - 0.00 in0.0 mm 0.00 in0.0 mm
10:20 AM 49.5°F9.7°C 26.1°F-3.3°C 40% 3.5 mph N5.6 kmh N 5.8 mph9.3 kmh 29.94 in1013.9 mb - 0.00 in0.0 mm 0.00 in0.0 mm
10:10 AM 48.5°F9.2°C 25.3°F-3.7°C 40% 4.6 mph N7.4 kmh N 8.1 mph13.0 kmh 29.94 in1013.9 mb - 0.00 in0.0 mm 0.00 in0.0 mm
10:00 AM 48.2°F9.0°C 25.0°F-3.9°C 40% 3.5 mph WSW5.6 kmh WSW 5.8 mph9.3 kmh 29.94 in1013.9 mb - 0.00 in0.0 mm 0.00 in0.0 mm
09:50 AM 47.7°F8.7°C 25.1°F-3.8°C 41% 6.9 mph NNW11.1 kmh NNW 12.7 mph20.4 kmh 29.94 in1013.9 mb - 0.00 in0.0 mm 0.00 in0.0 mm
09:40 AM 47.7°F8.7°C 25.1°F-3.8°C 41% 9.2 mph NNE14.8 kmh NNE 10.4 mph16.7 kmh 29.94 in1013.9 mb - 0.00 in0.0 mm 0.00 in0.0 mm
09:30 AM 47.8°F8.8°C 25.2°F-3.8°C 41% 8.1 mph NNE13.0 kmh NNE 11.5 mph18.5 kmh 29.94 in1013.9 mb - 0.00 in0.0 mm 0.00 in0.0 mm
09:20 AM 47.3°F8.5°C 24.8°F-4.0°C 41% 10.4 mph N16.7 kmh N 15.0 mph24.1 kmh 29.91 in1012.9 mb - 0.00 in0.0 mm 0.00 in0.0 mm
09:10 AM 47.3°F8.5°C 25.3°F-3.7°C 42% 5.8 mph N9.3 kmh N 11.5 mph18.5 kmh 29.91 in1012.9 mb - 0.00 in0.0 mm 0.00 in0.0 mm
09:00 AM 46.9°F8.3°C 25.0°F-3.9°C 42% 8.1 mph N13.0 kmh N 10.4 mph16.7 kmh 29.91 in1012.9 mb - 0.00 in0.0 mm 0.00 in0.0 mm
08:50 AM 46.4°F8.0°C 25.1°F-3.8°C 43% 5.8 mph N9.3 kmh N 8.1 mph13.0 kmh 29.91 in1012.9 mb - 0.00 in0.0 mm 0.00 in0.0 mm
08:40 AM 46.6°F8.1°C 25.8°F-3.4°C 44% 6.9 mph N11.1 kmh N 12.7 mph20.4 kmh 29.91 in1012.9 mb - 0.00 in0.0 mm 0.00 in0.0 mm
08:30 AM 45.8°F7.7°C 26.2°F-3.2°C 46% 4.6 mph NNE7.4 kmh NNE 9.2 mph14.8 kmh 29.91 in1012.9 mb - 0.00 in0.0 mm 0.00 in0.0 mm
08:20 AM 44.2°F6.8°C 25.8°F-3.4°C 48% 2.3 mph N3.7 kmh N 8.1 mph13.0 kmh 29.91 in1012.9 mb - 0.00 in0.0 mm 0.00 in0.0 mm
08:10 AM 45.0°F7.2°C 25.4°F-3.7°C 46% 2.3 mph SE3.7 kmh SE 4.6 mph7.4 kmh 29.91 in1012.9 mb - 0.00 in0.0 mm 0.00 in0.0 mm
08:00 AM 45.9°F7.7°C 26.7°F-2.9°C 47% 9.2 mph NNW14.8 kmh NNW 12.7 mph20.4 kmh 29.91 in1012.9 mb - 0.00 in0.0 mm 0.00 in0.0 mm
07:50 AM 44.7°F7.1°C 26.7°F-2.9°C 49% 5.8 mph N9.3 kmh N 11.5 mph18.5 kmh 29.91 in1012.9 mb - 0.00 in0.0 mm 0.00 in0.0 mm
07:40 AM 42.9°F6.1°C 26.5°F-3.1°C 52% 6.9 mph NW11.1 kmh NW 12.7 mph20.4 kmh 29.91 in1012.9 mb - 0.00 in0.0 mm 0.00 in0.0 mm
07:30 AM 42.2°F5.7°C 25.8°F-3.4°C 52% 4.6 mph NW7.4 kmh NW 8.1 mph13.0 kmh 29.91 in1012.9 mb - 0.00 in0.0 mm 0.00 in0.0 mm
07:20 AM 42.3°F5.7°C 26.3°F-3.2°C 53% 3.5 mph NW5.6 kmh NW 5.8 mph9.3 kmh 29.88 in1011.9 mb - 0.00 in0.0 mm 0.00 in0.0 mm
07:10 AM 41.4°F5.2°C 26.9°F-2.8°C 56% 6.9 mph NNW11.1 kmh NNW 9.2 mph14.8 kmh 29.88 in1011.9 mb - 0.00 in0.0 mm 0.00 in0.0 mm
07:00 AM 38.2°F3.4°C 26.3°F-3.2°C 62% 4.6 mph W7.4 kmh W 5.8 mph9.3 kmh 29.88 in1011.9 mb - 0.00 in0.0 mm 0.00 in0.0 mm
06:50 AM 37.0°F2.8°C 25.2°F-3.8°C 62% Calm Calm -- 29.88 in1011.9 mb - 0.00 in0.0 mm 0.00 in0.0 mm
06:40 AM 37.4°F3.0°C 25.2°F-3.8°C 61% Calm Calm -- 29.86 in1011.2 mb - 0.00 in0.0 mm 0.00 in0.0 mm
06:30 AM 37.6°F3.1°C 24.9°F-3.9°C 60% Calm Calm -- 29.86 in1011.2 mb - 0.00 in0.0 mm 0.00 in0.0 mm
06:20 AM 37.4°F3.0°C 24.4°F-4.2°C 59% Calm Calm -- 29.86 in1011.2 mb - 0.00 in0.0 mm 0.00 in0.0 mm
06:10 AM 37.8°F3.2°C 23.9°F-4.5°C 57% Calm Calm -- 29.88 in1011.9 mb - 0.00 in0.0 mm 0.00 in0.0 mm
06:00 AM 38.9°F3.8°C 24.1°F-4.4°C 55% Calm Calm -- 29.88 in1011.9 mb - 0.00 in0.0 mm 0.00 in0.0 mm
05:50 AM 40.3°F4.6°C 24.9°F-3.9°C 54% Calm Calm -- 29.88 in1011.9 mb - 0.00 in0.0 mm 0.00 in0.0 mm
05:40 AM 40.1°F4.5°C 24.8°F-4.0°C 54% 3.5 mph W5.6 kmh W 3.5 mph5.6 kmh 29.88 in1011.9 mb - 0.00 in0.0 mm 0.00 in0.0 mm
05:30 AM 39.9°F4.4°C 25.0°F-3.9°C 55% 3.5 mph WSW5.6 kmh WSW 5.8 mph9.3 kmh 29.88 in1011.9 mb - 0.00 in0.0 mm 0.00 in0.0 mm
05:20 AM 40.1°F4.5°C 24.7°F-4.1°C 54% 2.3 mph WNW3.7 kmh WNW 3.5 mph5.6 kmh 29.88 in1011.9 mb - 0.00 in0.0 mm 0.00 in0.0 mm
05:10 AM 40.4°F4.7°C 25.5°F-3.6°C 55% 2.3 mph NW3.7 kmh NW 3.5 mph5.6 kmh 29.88 in1011.9 mb - 0.00 in0.0 mm 0.00 in0.0 mm
05:00 AM 39.9°F4.4°C 25.0°F-3.9°C 55% 1.2 mph NW1.9 kmh NW -- 29.88 in1011.9 mb - 0.00 in0.0 mm 0.00 in0.0 mm
04:50 AM 40.3°F4.6°C 25.4°F-3.7°C 55% 3.5 mph WNW5.6 kmh WNW 3.5 mph5.6 kmh 29.88 in1011.9 mb - 0.00 in0.0 mm 0.00 in0.0 mm
04:40 AM 39.7°F4.3°C 25.3°F-3.7°C 56% 3.5 mph SSW5.6 kmh SSW 3.5 mph5.6 kmh 29.88 in1011.9 mb - 0.00 in0.0 mm 0.00 in0.0 mm
04:30 AM 40.3°F4.6°C 25.4°F-3.7°C 55% 2.3 mph WNW3.7 kmh WNW 3.5 mph5.6 kmh 29.88 in1011.9 mb - 0.00 in0.0 mm 0.00 in0.0 mm
04:20 AM 40.5°F4.7°C 26.4°F-3.1°C 57% Calm Calm 3.5 mph5.6 kmh 29.88 in1011.9 mb - 0.00 in0.0 mm 0.00 in0.0 mm
04:10 AM 39.1°F3.9°C 26.0°F-3.3°C 59% 3.5 mph WSW5.6 kmh WSW 5.8 mph9.3 kmh 29.91 in1012.9 mb - 0.00 in0.0 mm 0.00 in0.0 mm
04:00 AM 37.9°F3.3°C 25.3°F-3.7°C 60% 1.2 mph SSE1.9 kmh SSE 3.5 mph5.6 kmh 29.91 in1012.9 mb - 0.00 in0.0 mm 0.00 in0.0 mm
03:50 AM 37.9°F3.3°C 25.3°F-3.7°C 60% 3.5 mph SSE5.6 kmh SSE 3.5 mph5.6 kmh 29.91 in1012.9 mb - 0.00 in0.0 mm 0.00 in0.0 mm
03:40 AM 37.8°F3.2°C 24.3°F-4.3°C 58% 1.2 mph SE1.9 kmh SE 2.3 mph3.7 kmh 29.91 in1012.9 mb - 0.00 in0.0 mm 0.00 in0.0 mm
03:30 AM 39.9°F4.4°C 25.5°F-3.6°C 56% 3.5 mph N5.6 kmh N 3.5 mph5.6 kmh 29.91 in1012.9 mb - 0.00 in0.0 mm 0.00 in0.0 mm
03:20 AM 40.5°F4.7°C 27.7°F-2.4°C 60% 3.5 mph WNW5.6 kmh WNW 3.5 mph5.6 kmh 29.91 in1012.9 mb - 0.00 in0.0 mm 0.00 in0.0 mm
03:10 AM 38.8°F3.8°C 28.8°F-1.8°C 67% 4.6 mph WNW7.4 kmh WNW 6.9 mph11.1 kmh 29.91 in1012.9 mb - 0.00 in0.0 mm 0.00 in0.0 mm
03:00 AM 36.1°F2.3°C 27.3°F-2.6°C 70% 4.6 mph NNW7.4 kmh NNW 5.8 mph9.3 kmh 29.91 in1012.9 mb - 0.00 in0.0 mm 0.00 in0.0 mm
02:50 AM 35.5°F1.9°C 27.4°F-2.6°C 72% 3.5 mph NW5.6 kmh NW 5.8 mph9.3 kmh 29.94 in1013.9 mb - 0.00 in0.0 mm 0.00 in0.0 mm
02:40 AM 35.2°F1.8°C 27.4°F-2.6°C 73% Calm Calm -- 29.94 in1013.9 mb - 0.00 in0.0 mm 0.00 in0.0 mm
02:30 AM 35.2°F1.8°C 27.4°F-2.6°C 73% Calm Calm -- 29.94 in1013.9 mb - 0.00 in0.0 mm 0.00 in0.0 mm
02:20 AM 35.4°F1.9°C 27.6°F-2.4°C 73% 2.3 mph SW3.7 kmh SW 3.5 mph5.6 kmh 29.94 in1013.9 mb - 0.00 in0.0 mm 0.00 in0.0 mm
02:10 AM 35.2°F1.8°C 27.8°F-2.3°C 74% Calm Calm -- 29.94 in1013.9 mb - 0.00 in0.0 mm 0.00 in0.0 mm
02:00 AM 34.9°F1.6°C 27.4°F-2.6°C 74% Calm Calm -- 29.94 in1013.9 mb - 0.00 in0.0 mm 0.00 in0.0 mm
01:50 AM 34.5°F1.4°C 27.1°F-2.7°C 74% Calm Calm -- 29.94 in1013.9 mb - 0.00 in0.0 mm 0.00 in0.0 mm
01:40 AM 34.5°F1.4°C 27.1°F-2.7°C 74% 1.2 mph SW1.9 kmh SW -- 29.94 in1013.9 mb - 0.00 in0.0 mm 0.00 in0.0 mm
01:30 AM 35.3°F1.8°C 28.2°F-2.1°C 75% Calm Calm -- 29.94 in1013.9 mb - 0.00 in0.0 mm 0.00 in0.0 mm
01:20 AM 34.5°F1.4°C 27.4°F-2.6°C 75% Calm Calm -- 29.97 in1014.9 mb - 0.00 in0.0 mm 0.00 in0.0 mm
01:10 AM 34.6°F1.4°C 27.5°F-2.5°C 75% Calm Calm -- 29.97 in1014.9 mb - 0.00 in0.0 mm 0.00 in0.0 mm
01:00 AM 34.9°F1.6°C 27.8°F-2.3°C 75% Calm Calm -- 29.97 in1014.9 mb - 0.00 in0.0 mm 0.00 in0.0 mm
12:50 AM 35.2°F1.8°C 28.4°F-2.0°C 76% 2.3 mph S3.7 kmh S 3.5 mph5.6 kmh 30.00 in1015.9 mb - 0.00 in0.0 mm 0.00 in0.0 mm
12:40 AM 35.1°F1.7°C 27.9°F-2.3°C 75% Calm Calm -- 30.00 in1015.9 mb - 0.00 in0.0 mm 0.00 in0.0 mm
12:30 AM 35.2°F1.8°C 28.1°F-2.2°C 75% Calm Calm -- 30.00 in1015.9 mb - 0.00 in0.0 mm 0.00 in0.0 mm
12:20 AM 35.2°F1.8°C 28.1°F-2.2°C 75% Calm Calm -- 30.00 in1015.9 mb - 0.00 in0.0 mm 0.00 in0.0 mm
12:10 AM 35.2°F1.8°C 28.1°F-2.2°C 75% 1.2 mph ENE1.9 kmh ENE 3.5 mph5.6 kmh 30.03 in1016.9 mb - 0.00 in0.0 mm 0.00 in0.0 mm
12:00 AM 34.5°F1.4°C 27.1°F-2.7°C 74% Calm Calm -- 30.03 in1016.9 mb - 0.00 in0.0 mm 0.00 in0.0 mm